sensor_id;sensor_type;location;lat;lon;timestamp;pressure;altitude;pressure_sealevel;temperature;humidity
10832;BME280;5469;48.574;8.768;2023-03-03T00:01:49;94949.97;;;3.42;nan
10832;BME280;5469;48.574;8.768;2023-03-03T00:04:25;94953.16;;;3.32;nan
10832;BME280;5469;48.574;8.768;2023-03-03T00:07:00;94958.94;;;3.34;nan
10832;BME280;5469;48.574;8.768;2023-03-03T00:09:35;94954.97;;;3.32;nan
10832;BME280;5469;48.574;8.768;2023-03-03T00:12:22;94959.84;;;3.28;nan
10832;BME280;5469;48.574;8.768;2023-03-03T00:14:57;94963.41;;;3.34;nan
10832;BME280;5469;48.574;8.768;2023-03-03T00:17:32;94963.75;;;3.37;nan
10832;BME280;5469;48.574;8.768;2023-03-03T00:20:33;94963.31;;;3.40;nan
10832;BME280;5469;48.574;8.768;2023-03-03T00:23:16;94961.56;;;3.34;nan
10832;BME280;5469;48.574;8.768;2023-03-03T00:25:54;94958.28;;;3.39;nan
10832;BME280;5469;48.574;8.768;2023-03-03T00:28:31;94966.25;;;3.32;nan
10832;BME280;5469;48.574;8.768;2023-03-03T00:31:17;94963.63;;;3.32;nan
10832;BME280;5469;48.574;8.768;2023-03-03T00:33:54;94962.16;;;3.36;nan
10832;BME280;5469;48.574;8.768;2023-03-03T00:36:37;94963.50;;;3.27;nan
10832;BME280;5469;48.574;8.768;2023-03-03T00:39:18;94968.97;;;3.37;nan
10832;BME280;5469;48.574;8.768;2023-03-03T00:41:56;94964.91;;;3.41;nan
10832;BME280;5469;48.574;8.768;2023-03-03T00:44:38;94959.91;;;3.52;nan
10832;BME280;5469;48.574;8.768;2023-03-03T00:47:22;94966.47;;;3.31;nan
10832;BME280;5469;48.574;8.768;2023-03-03T00:50:25;94966.34;;;3.37;nan
10832;BME280;5469;48.574;8.768;2023-03-03T00:53:16;94959.91;;;3.52;nan
10832;BME280;5469;48.574;8.768;2023-03-03T00:55:52;94963.56;;;3.50;nan
10832;BME280;5469;48.574;8.768;2023-03-03T00:58:28;94957.63;;;3.43;nan
10832;BME280;5469;48.574;8.768;2023-03-03T01:01:04;94960.00;;;3.45;nan
10832;BME280;5469;48.574;8.768;2023-03-03T01:03:39;94960.81;;;3.45;nan
10832;BME280;5469;48.574;8.768;2023-03-03T01:06:15;94966.50;;;3.42;nan
10832;BME280;5469;48.574;8.768;2023-03-03T01:08:52;94963.44;;;3.45;nan
10832;BME280;5469;48.574;8.768;2023-03-03T01:11:29;94961.88;;;3.68;nan
10832;BME280;5469;48.574;8.768;2023-03-03T01:14:04;94962.00;;;3.73;nan
10832;BME280;5469;48.574;8.768;2023-03-03T01:16:40;94958.38;;;3.74;nan
10832;BME280;5469;48.574;8.768;2023-03-03T01:19:15;94955.19;;;3.72;nan
10832;BME280;5469;48.574;8.768;2023-03-03T01:21:50;94964.56;;;3.38;nan
10832;BME280;5469;48.574;8.768;2023-03-03T01:24:26;94970.41;;;2.91;nan
10832;BME280;5469;48.574;8.768;2023-03-03T01:27:01;94963.31;;;3.40;nan
10832;BME280;5469;48.574;8.768;2023-03-03T01:29:36;94966.19;;;3.50;nan
10832;BME280;5469;48.574;8.768;2023-03-03T01:32:11;94968.25;;;3.60;nan
10832;BME280;5469;48.574;8.768;2023-03-03T01:34:46;94960.94;;;3.50;nan
10832;BME280;5469;48.574;8.768;2023-03-03T01:37:22;94965.53;;;3.25;nan
10832;BME280;5469;48.574;8.768;2023-03-03T01:40:02;94957.28;;;3.10;nan
10832;BME280;5469;48.574;8.768;2023-03-03T01:42:37;94959.28;;;3.26;nan
10832;BME280;5469;48.574;8.768;2023-03-03T01:45:15;94953.31;;;3.19;nan
10832;BME280;5469;48.574;8.768;2023-03-03T01:47:55;94961.25;;;3.42;nan
10832;BME280;5469;48.574;8.768;2023-03-03T01:50:41;94956.88;;;2.94;nan
10832;BME280;5469;48.574;8.768;2023-03-03T01:53:21;94949.03;;;2.94;nan
10832;BME280;5469;48.574;8.768;2023-03-03T01:55:58;94951.41;;;2.47;nan
10832;BME280;5469;48.574;8.768;2023-03-03T01:58:36;94946.34;;;2.82;nan
10832;BME280;5469;48.574;8.768;2023-03-03T02:01:18;94946.81;;;3.10;nan
10832;BME280;5469;48.574;8.768;2023-03-03T02:03:54;94949.81;;;3.25;nan
10832;BME280;5469;48.574;8.768;2023-03-03T02:06:32;94944.66;;;3.18;nan
10832;BME280;5469;48.574;8.768;2023-03-03T02:09:13;94951.00;;;3.11;nan
10832;BME280;5469;48.574;8.768;2023-03-03T02:11:56;94946.84;;;2.91;nan
10832;BME280;5469;48.574;8.768;2023-03-03T02:14:32;94944.78;;;3.12;nan
10832;BME280;5469;48.574;8.768;2023-03-03T02:17:08;94939.41;;;3.06;nan
10832;BME280;5469;48.574;8.768;2023-03-03T02:19:49;94932.09;;;3.09;nan
10832;BME280;5469;48.574;8.768;2023-03-03T02:22:31;94938.56;;;2.94;nan
10832;BME280;5469;48.574;8.768;2023-03-03T02:25:12;94940.13;;;2.95;nan
10832;BME280;5469;48.574;8.768;2023-03-03T02:27:52;94933.94;;;2.78;nan
10832;BME280;5469;48.574;8.768;2023-03-03T02:30:30;94931.59;;;2.70;nan
10832;BME280;5469;48.574;8.768;2023-03-03T02:33:10;94931.06;;;2.49;nan
10832;BME280;5469;48.574;8.768;2023-03-03T02:35:45;94936.69;;;2.46;nan
10832;BME280;5469;48.574;8.768;2023-03-03T02:38:23;94925.13;;;2.72;nan
10832;BME280;5469;48.574;8.768;2023-03-03T02:41:02;94929.13;;;2.75;nan
10832;BME280;5469;48.574;8.768;2023-03-03T02:43:44;94922.38;;;2.67;nan
10832;BME280;5469;48.574;8.768;2023-03-03T02:46:20;94932.59;;;2.87;nan
10832;BME280;5469;48.574;8.768;2023-03-03T02:48:56;94932.00;;;2.85;nan
10832;BME280;5469;48.574;8.768;2023-03-03T02:51:32;94925.31;;;2.89;nan
10832;BME280;5469;48.574;8.768;2023-03-03T02:54:09;94926.91;;;2.90;nan
10832;BME280;5469;48.574;8.768;2023-03-03T02:56:46;94926.91;;;2.90;nan
10832;BME280;5469;48.574;8.768;2023-03-03T02:59:22;94927.16;;;2.89;nan
10832;BME280;5469;48.574;8.768;2023-03-03T03:01:57;94929.19;;;2.87;nan
10832;BME280;5469;48.574;8.768;2023-03-03T03:04:32;94930.63;;;2.82;nan
10832;BME280;5469;48.574;8.768;2023-03-03T03:07:08;94939.16;;;2.78;nan
10832;BME280;5469;48.574;8.768;2023-03-03T03:09:44;94933.22;;;2.71;nan
10832;BME280;5469;48.574;8.768;2023-03-03T03:12:19;94937.09;;;2.80;nan
10832;BME280;5469;48.574;8.768;2023-03-03T03:14:56;94938.78;;;2.74;nan
10832;BME280;5469;48.574;8.768;2023-03-03T03:17:31;94939.16;;;2.78;nan
10832;BME280;5469;48.574;8.768;2023-03-03T03:20:07;94926.34;;;2.70;nan
10832;BME280;5469;48.574;8.768;2023-03-03T03:22:42;94930.81;;;2.69;nan
10832;BME280;5469;48.574;8.768;2023-03-03T03:25:17;94936.41;;;2.73;nan
10832;BME280;5469;48.574;8.768;2023-03-03T03:27:52;94940.16;;;2.77;nan
10832;BME280;5469;48.574;8.768;2023-03-03T03:30:28;94933.94;;;2.78;nan
10832;BME280;5469;48.574;8.768;2023-03-03T03:33:04;94937.09;;;2.80;nan
10832;BME280;5469;48.574;8.768;2023-03-03T03:35:39;94940.69;;;2.86;nan
10832;BME280;5469;48.574;8.768;2023-03-03T03:38:19;94939.88;;;2.85;nan
10832;BME280;5469;48.574;8.768;2023-03-03T03:40:53;94944.75;;;2.81;nan
10832;BME280;5469;48.574;8.768;2023-03-03T03:43:29;94942.34;;;2.80;nan
10832;BME280;5469;48.574;8.768;2023-03-03T03:46:05;94943.78;;;2.94;nan
10832;BME280;5469;48.574;8.768;2023-03-03T03:48:40;94949.16;;;2.99;nan
10832;BME280;5469;48.574;8.768;2023-03-03T03:51:15;94948.13;;;2.70;nan
10832;BME280;5469;48.574;8.768;2023-03-03T03:53:50;94948.44;;;2.92;nan
10832;BME280;5469;48.574;8.768;2023-03-03T03:56:25;94953.91;;;2.91;nan
10832;BME280;5469;48.574;8.768;2023-03-03T03:59:00;94949.03;;;2.94;nan
10832;BME280;5469;48.574;8.768;2023-03-03T04:01:37;94950.97;;;2.99;nan
10832;BME280;5469;48.574;8.768;2023-03-03T04:04:12;94944.94;;;2.98;nan
10832;BME280;5469;48.574;8.768;2023-03-03T04:06:46;94953.81;;;2.97;nan
10832;BME280;5469;48.574;8.768;2023-03-03T04:09:22;94950.88;;;3.05;nan
10832;BME280;5469;48.574;8.768;2023-03-03T04:11:57;94951.31;;;3.02;nan
10832;BME280;5469;48.574;8.768;2023-03-03T04:14:32;94946.81;;;3.10;nan
10832;BME280;5469;48.574;8.768;2023-03-03T04:17:09;94948.84;;;3.08;nan
10832;BME280;5469;48.574;8.768;2023-03-03T04:19:51;94947.81;;;3.09;nan
10832;BME280;5469;48.574;8.768;2023-03-03T04:22:26;94947.00;;;2.96;nan
10832;BME280;5469;48.574;8.768;2023-03-03T04:25:01;94942.97;;;2.27;nan
10832;BME280;5469;48.574;8.768;2023-03-03T04:27:38;94947.75;;;2.67;nan
10832;BME280;5469;48.574;8.768;2023-03-03T04:30:16;94943.16;;;2.80;nan
10832;BME280;5469;48.574;8.768;2023-03-03T04:32:56;94953.09;;;2.90;nan
10832;BME280;5469;48.574;8.768;2023-03-03T04:35:31;94949.34;;;2.68;nan
10832;BME280;5469;48.574;8.768;2023-03-03T04:38:06;94948.63;;;2.42;nan
10832;BME280;5469;48.574;8.768;2023-03-03T04:40:42;94947.31;;;2.33;nan
10832;BME280;5469;48.574;8.768;2023-03-03T04:43:17;94947.84;;;2.90;nan
10832;BME280;5469;48.574;8.768;2023-03-03T04:45:55;94954.09;;;3.08;nan
10832;BME280;5469;48.574;8.768;2023-03-03T04:48:31;94949.91;;;2.88;nan
10832;BME280;5469;48.574;8.768;2023-03-03T04:51:07;94959.75;;;2.37;nan
10832;BME280;5469;48.574;8.768;2023-03-03T04:53:42;94959.38;;;2.71;nan
10832;BME280;5469;48.574;8.768;2023-03-03T04:56:17;94959.06;;;2.97;nan
10832;BME280;5469;48.574;8.768;2023-03-03T04:58:52;94958.63;;;2.82;nan
10832;BME280;5469;48.574;8.768;2023-03-03T05:01:27;94955.72;;;2.72;nan
10832;BME280;5469;48.574;8.768;2023-03-03T05:04:03;94958.59;;;3.00;nan
10832;BME280;5469;48.574;8.768;2023-03-03T05:06:38;94961.03;;;3.14;nan
10832;BME280;5469;48.574;8.768;2023-03-03T05:09:13;94953.38;;;3.00;nan
10832;BME280;5469;48.574;8.768;2023-03-03T05:11:48;94944.78;;;3.12;nan
10832;BME280;5469;48.574;8.768;2023-03-03T05:14:24;94959.00;;;3.16;nan
10832;BME280;5469;48.574;8.768;2023-03-03T05:17:00;94955.50;;;3.22;nan
10832;BME280;5469;48.574;8.768;2023-03-03T05:19:36;94961.44;;;3.29;nan
10832;BME280;5469;48.574;8.768;2023-03-03T05:22:11;94970.50;;;3.15;nan
10832;BME280;5469;48.574;8.768;2023-03-03T05:24:46;94966.47;;;3.00;nan
10832;BME280;5469;48.574;8.768;2023-03-03T05:27:23;94970.25;;;3.04;nan
10832;BME280;5469;48.574;8.768;2023-03-03T05:29:59;94966.00;;;3.03;nan
10832;BME280;5469;48.574;8.768;2023-03-03T05:32:35;94968.91;;;3.14;nan
10832;BME280;5469;48.574;8.768;2023-03-03T05:35:13;94973.41;;;3.25;nan
10832;BME280;5469;48.574;8.768;2023-03-03T05:37:48;94978.38;;;3.15;nan
10832;BME280;5469;48.574;8.768;2023-03-03T05:40:24;94970.78;;;3.25;nan
10832;BME280;5469;48.574;8.768;2023-03-03T05:43:01;94980.69;;;3.23;nan
10832;BME280;5469;48.574;8.768;2023-03-03T05:45:36;94978.41;;;3.26;nan
10832;BME280;5469;48.574;8.768;2023-03-03T05:48:11;94978.25;;;3.21;nan
10832;BME280;5469;48.574;8.768;2023-03-03T05:50:47;94983.09;;;3.24;nan
10832;BME280;5469;48.574;8.768;2023-03-03T05:53:22;94984.88;;;3.24;nan
10832;BME280;5469;48.574;8.768;2023-03-03T05:55:57;94986.69;;;3.12;nan
10832;BME280;5469;48.574;8.768;2023-03-03T05:58:32;94978.72;;;3.18;nan
10832;BME280;5469;48.574;8.768;2023-03-03T06:01:07;94988.72;;;3.10;nan
10832;BME280;5469;48.574;8.768;2023-03-03T06:03:42;94987.16;;;3.20;nan
10832;BME280;5469;48.574;8.768;2023-03-03T06:06:18;94984.19;;;3.17;nan
10832;BME280;5469;48.574;8.768;2023-03-03T06:08:53;94991.28;;;3.28;nan
10832;BME280;5469;48.574;8.768;2023-03-03T06:11:28;94997.69;;;3.32;nan
10832;BME280;5469;48.574;8.768;2023-03-03T06:14:03;95000.41;;;3.37;nan
10832;BME280;5469;48.574;8.768;2023-03-03T06:16:38;94997.06;;;3.48;nan
10832;BME280;5469;48.574;8.768;2023-03-03T06:19:13;94999.00;;;3.53;nan
10832;BME280;5469;48.574;8.768;2023-03-03T06:21:50;94998.63;;;3.49;nan
10832;BME280;5469;48.574;8.768;2023-03-03T06:24:25;95004.53;;;3.33;nan
10832;BME280;5469;48.574;8.768;2023-03-03T06:27:02;95005.03;;;3.54;nan
10832;BME280;5469;48.574;8.768;2023-03-03T06:29:37;95009.84;;;3.57;nan
10832;BME280;5469;48.574;8.768;2023-03-03T06:32:12;95009.13;;;3.49;nan
10832;BME280;5469;48.574;8.768;2023-03-03T06:34:48;95014.09;;;3.39;nan
10832;BME280;5469;48.574;8.768;2023-03-03T06:37:24;95021.63;;;3.47;nan
10832;BME280;5469;48.574;8.768;2023-03-03T06:39:59;95018.09;;;3.42;nan
10832;BME280;5469;48.574;8.768;2023-03-03T06:42:34;95021.50;;;3.42;nan
10832;BME280;5469;48.574;8.768;2023-03-03T06:45:11;95021.34;;;3.56;nan
10832;BME280;5469;48.574;8.768;2023-03-03T06:47:46;95027.59;;;3.55;nan
10832;BME280;5469;48.574;8.768;2023-03-03T06:50:22;95031.97;;;3.61;nan
10832;BME280;5469;48.574;8.768;2023-03-03T06:53:06;95031.41;;;3.70;nan
10832;BME280;5469;48.574;8.768;2023-03-03T06:55:44;95036.22;;;3.74;nan
10832;BME280;5469;48.574;8.768;2023-03-03T06:58:21;95033.69;;;3.79;nan
10832;BME280;5469;48.574;8.768;2023-03-03T07:00:58;95027.22;;;3.81;nan
10832;BME280;5469;48.574;8.768;2023-03-03T07:03:35;95038.84;;;3.85;nan
10832;BME280;5469;48.574;8.768;2023-03-03T07:06:23;95043.53;;;3.83;nan
10832;BME280;5469;48.574;8.768;2023-03-03T07:09:00;95058.53;;;3.76;nan
10832;BME280;5469;48.574;8.768;2023-03-03T07:11:36;95054.38;;;3.57;nan
10832;BME280;5469;48.574;8.768;2023-03-03T07:14:17;95058.78;;;3.44;nan
10832;BME280;5469;48.574;8.768;2023-03-03T07:16:58;95061.66;;;3.55;nan
10832;BME280;5469;48.574;8.768;2023-03-03T07:19:35;95062.19;;;3.63;nan
10832;BME280;5469;48.574;8.768;2023-03-03T07:22:16;95063.78;;;3.76;nan
10832;BME280;5469;48.574;8.768;2023-03-03T07:24:56;95068.72;;;3.84;nan
10832;BME280;5469;48.574;8.768;2023-03-03T07:27:33;95062.25;;;3.57;nan
10832;BME280;5469;48.574;8.768;2023-03-03T07:30:19;95063.22;;;3.74;nan
10832;BME280;5469;48.574;8.768;2023-03-03T07:32:56;95077.56;;;3.41;nan
10832;BME280;5469;48.574;8.768;2023-03-03T07:35:37;95068.66;;;3.61;nan
10832;BME280;5469;48.574;8.768;2023-03-03T07:38:22;95074.72;;;3.73;nan
10832;BME280;5469;48.574;8.768;2023-03-03T07:41:00;95078.00;;;3.99;nan
10832;BME280;5469;48.574;8.768;2023-03-03T07:43:37;95073.97;;;3.84;nan
10832;BME280;5469;48.574;8.768;2023-03-03T07:46:22;95080.63;;;3.99;nan
10832;BME280;5469;48.574;8.768;2023-03-03T07:49:01;95076.53;;;4.03;nan
10832;BME280;5469;48.574;8.768;2023-03-03T07:51:47;95086.56;;;4.06;nan
10832;BME280;5469;48.574;8.768;2023-03-03T07:54:33;95082.22;;;4.00;nan
10832;BME280;5469;48.574;8.768;2023-03-03T07:57:18;95080.63;;;3.99;nan
10832;BME280;5469;48.574;8.768;2023-03-03T07:59:58;95088.66;;;4.27;nan
10832;BME280;5469;48.574;8.768;2023-03-03T08:02:40;95091.41;;;4.56;nan
10832;BME280;5469;48.574;8.768;2023-03-03T08:05:33;95092.34;;;4.50;nan
10832;BME280;5469;48.574;8.768;2023-03-03T08:08:26;95085.81;;;4.64;nan
10832;BME280;5469;48.574;8.768;2023-03-03T08:11:04;95091.88;;;4.76;nan
10832;BME280;5469;48.574;8.768;2023-03-03T08:13:45;95084.13;;;4.81;nan
10832;BME280;5469;48.574;8.768;2023-03-03T08:16:27;95078.63;;;4.95;nan
10832;BME280;5469;48.574;8.768;2023-03-03T08:19:05;95075.41;;;5.16;nan
10832;BME280;5469;48.574;8.768;2023-03-03T08:21:40;95076.72;;;5.31;nan
10832;BME280;5469;48.574;8.768;2023-03-03T08:24:15;95079.56;;;5.41;nan
10832;BME280;5469;48.574;8.768;2023-03-03T08:26:50;95083.19;;;5.52;nan
10832;BME280;5469;48.574;8.768;2023-03-03T08:29:28;95088.50;;;5.68;nan
10832;BME280;5469;48.574;8.768;2023-03-03T08:32:03;95093.41;;;5.65;nan
10832;BME280;5469;48.574;8.768;2023-03-03T08:34:38;95091.50;;;5.60;nan
10832;BME280;5469;48.574;8.768;2023-03-03T08:37:13;95095.63;;;5.85;nan
10832;BME280;5469;48.574;8.768;2023-03-03T08:39:48;95094.56;;;5.69;nan
10832;BME280;5469;48.574;8.768;2023-03-03T08:42:23;95091.69;;;5.99;nan
10832;BME280;5469;48.574;8.768;2023-03-03T08:45:00;95087.00;;;6.01;nan
10832;BME280;5469;48.574;8.768;2023-03-03T08:47:35;95092.44;;;5.83;nan
10832;BME280;5469;48.574;8.768;2023-03-03T08:50:11;95102.31;;;6.04;nan
10832;BME280;5469;48.574;8.768;2023-03-03T08:52:47;95102.97;;;6.11;nan
10832;BME280;5469;48.574;8.768;2023-03-03T08:55:22;95102.16;;;5.94;nan
10832;BME280;5469;48.574;8.768;2023-03-03T08:57:57;95102.03;;;5.60;nan
10832;BME280;5469;48.574;8.768;2023-03-03T09:00:35;95101.94;;;6.12;nan
10832;BME280;5469;48.574;8.768;2023-03-03T09:03:11;95090.06;;;6.27;nan
10832;BME280;5469;48.574;8.768;2023-03-03T09:05:47;95092.88;;;6.37;nan
10832;BME280;5469;48.574;8.768;2023-03-03T09:08:22;95090.56;;;6.57;nan
10832;BME280;5469;48.574;8.768;2023-03-03T09:10:57;95091.50;;;6.85;nan
10832;BME280;5469;48.574;8.768;2023-03-03T09:13:33;95091.97;;;6.82;nan
10832;BME280;5469;48.574;8.768;2023-03-03T09:16:14;95096.06;;;7.12;nan
10832;BME280;5469;48.574;8.768;2023-03-03T09:18:49;95103.00;;;7.18;nan
10832;BME280;5469;48.574;8.768;2023-03-03T09:21:28;95103.78;;;6.96;nan
10832;BME280;5469;48.574;8.768;2023-03-03T09:24:09;95099.63;;;7.00;nan
10832;BME280;5469;48.574;8.768;2023-03-03T09:26:51;95100.59;;;7.82;nan
10832;BME280;5469;48.574;8.768;2023-03-03T09:29:28;95100.41;;;7.89;nan
10832;BME280;5469;48.574;8.768;2023-03-03T09:32:19;95105.50;;;7.96;nan
10832;BME280;5469;48.574;8.768;2023-03-03T09:34:55;95101.94;;;8.07;nan
10832;BME280;5469;48.574;8.768;2023-03-03T09:37:35;95103.69;;;8.28;nan
10832;BME280;5469;48.574;8.768;2023-03-03T09:40:34;95106.91;;;8.30;nan
10832;BME280;5469;48.574;8.768;2023-03-03T09:43:15;95109.19;;;8.49;nan
10832;BME280;5469;48.574;8.768;2023-03-03T09:46:00;95109.94;;;8.17;nan
10832;BME280;5469;48.574;8.768;2023-03-03T09:48:49;95105.13;;;8.73;nan
10832;BME280;5469;48.574;8.768;2023-03-03T09:51:45;95110.25;;;8.53;nan
10832;BME280;5469;48.574;8.768;2023-03-03T09:54:42;95114.41;;;9.13;nan
10832;BME280;5469;48.574;8.768;2023-03-03T09:57:24;95108.06;;;9.77;nan
10832;BME280;5469;48.574;8.768;2023-03-03T10:00:23;95113.22;;;9.47;nan
10832;BME280;5469;48.574;8.768;2023-03-03T10:06:24;95119.59;;;9.46;nan
10832;BME280;5469;48.574;8.768;2023-03-03T10:12:18;95120.72;;;9.55;nan
10832;BME280;5469;48.574;8.768;2023-03-03T10:15:24;95127.31;;;9.52;nan
10832;BME280;5469;48.574;8.768;2023-03-03T10:18:05;95124.34;;;9.44;nan
10832;BME280;5469;48.574;8.768;2023-03-03T10:20:56;95134.19;;;9.53;nan
10832;BME280;5469;48.574;8.768;2023-03-03T10:24:03;95127.00;;;10.27;nan
10832;BME280;5469;48.574;8.768;2023-03-03T10:26:50;95133.97;;;10.59;nan
10832;BME280;5469;48.574;8.768;2023-03-03T10:29:34;95122.81;;;10.36;nan
10832;BME280;5469;48.574;8.768;2023-03-03T10:32:39;95121.75;;;10.99;nan
10832;BME280;5469;48.574;8.768;2023-03-03T10:35:39;95124.78;;;12.27;nan
10832;BME280;5469;48.574;8.768;2023-03-03T10:38:28;95123.84;;;11.22;nan
10832;BME280;5469;48.574;8.768;2023-03-03T10:41:16;95129.19;;;10.66;nan
10832;BME280;5469;48.574;8.768;2023-03-03T10:44:06;95135.56;;;10.90;nan
10832;BME280;5469;48.574;8.768;2023-03-03T10:47:02;95137.66;;;10.88;nan
10832;BME280;5469;48.574;8.768;2023-03-03T10:49:53;95130.69;;;11.38;nan
10832;BME280;5469;48.574;8.768;2023-03-03T10:52:35;95133.09;;;11.40;nan
10832;BME280;5469;48.574;8.768;2023-03-03T10:55:22;95132.16;;;11.80;nan
10832;BME280;5469;48.574;8.768;2023-03-03T11:01:01;95137.97;;;11.93;nan
10832;BME280;5469;48.574;8.768;2023-03-03T11:03:55;95128.38;;;12.02;nan
10832;BME280;5469;48.574;8.768;2023-03-03T11:06:39;95130.44;;;12.10;nan
10832;BME280;5469;48.574;8.768;2023-03-03T11:09:30;95117.06;;;14.01;nan
10832;BME280;5469;48.574;8.768;2023-03-03T11:12:21;95114.19;;;14.92;nan
10832;BME280;5469;48.574;8.768;2023-03-03T11:18:05;95118.50;;;17.43;nan
10832;BME280;5469;48.574;8.768;2023-03-03T11:20:49;95122.19;;;16.07;nan
10832;BME280;5469;48.574;8.768;2023-03-03T11:23:47;95113.41;;;17.33;nan
10832;BME280;5469;48.574;8.768;2023-03-03T11:26:32;95120.28;;;15.66;nan
10832;BME280;5469;48.574;8.768;2023-03-03T11:29:22;95111.56;;;17.42;nan
10832;BME280;5469;48.574;8.768;2023-03-03T11:32:15;95122.53;;;15.18;nan
10832;BME280;5469;48.574;8.768;2023-03-03T11:34:59;95122.41;;;15.09;nan
10832;BME280;5469;48.574;8.768;2023-03-03T11:37:44;95118.25;;;14.32;nan
10832;BME280;5469;48.574;8.768;2023-03-03T11:40:23;95104.00;;;17.13;nan
10832;BME280;5469;48.574;8.768;2023-03-03T11:43:02;95107.06;;;15.01;nan
10832;BME280;5469;48.574;8.768;2023-03-03T11:45:44;95097.78;;;18.32;nan
10832;BME280;5469;48.574;8.768;2023-03-03T11:48:26;95099.94;;;16.71;nan
10832;BME280;5469;48.574;8.768;2023-03-03T11:51:10;95102.22;;;18.37;nan
10832;BME280;5469;48.574;8.768;2023-03-03T11:53:56;95099.63;;;17.88;nan
10832;BME280;5469;48.574;8.768;2023-03-03T11:56:40;95094.75;;;17.90;nan
10832;BME280;5469;48.574;8.768;2023-03-03T11:59:34;95092.72;;;17.65;nan
10832;BME280;5469;48.574;8.768;2023-03-03T12:02:22;95093.09;;;16.42;nan
10832;BME280;5469;48.574;8.768;2023-03-03T12:05:07;95089.25;;;16.34;nan
10832;BME280;5469;48.574;8.768;2023-03-03T12:07:50;95096.44;;;16.11;nan
10832;BME280;5469;48.574;8.768;2023-03-03T12:10:33;95090.81;;;16.94;nan
10832;BME280;5469;48.574;8.768;2023-03-03T12:13:16;95089.72;;;15.45;nan
10832;BME280;5469;48.574;8.768;2023-03-03T12:16:02;95088.97;;;14.08;nan
10832;BME280;5469;48.574;8.768;2023-03-03T12:19:07;95087.09;;;15.12;nan
10832;BME280;5469;48.574;8.768;2023-03-03T12:21:55;95089.31;;;15.10;nan
10832;BME280;5469;48.574;8.768;2023-03-03T12:24:40;95085.69;;;15.34;nan
10832;BME280;5469;48.574;8.768;2023-03-03T12:27:25;95087.41;;;14.45;nan
10832;BME280;5469;48.574;8.768;2023-03-03T12:30:09;95079.41;;;14.64;nan
10832;BME280;5469;48.574;8.768;2023-03-03T12:33:00;95077.06;;;15.23;nan
10832;BME280;5469;48.574;8.768;2023-03-03T12:35:44;95077.06;;;15.64;nan
10832;BME280;5469;48.574;8.768;2023-03-03T12:38:32;95085.38;;;14.89;nan
10832;BME280;5469;48.574;8.768;2023-03-03T12:41:20;95073.09;;;16.03;nan
10832;BME280;5469;48.574;8.768;2023-03-03T12:44:00;95087.81;;;14.71;nan
10832;BME280;5469;48.574;8.768;2023-03-03T12:46:43;95080.22;;;15.52;nan
10832;BME280;5469;48.574;8.768;2023-03-03T12:49:20;95067.38;;;17.00;nan
10832;BME280;5469;48.574;8.768;2023-03-03T12:52:09;95069.88;;;17.59;nan
10832;BME280;5469;48.574;8.768;2023-03-03T12:54:52;95057.59;;;19.23;nan
10832;BME280;5469;48.574;8.768;2023-03-03T12:57:32;95056.03;;;20.62;nan
10832;BME280;5469;48.574;8.768;2023-03-03T13:00:21;95052.00;;;21.71;nan
10832;BME280;5469;48.574;8.768;2023-03-03T13:03:10;95053.56;;;21.48;nan
10832;BME280;5469;48.574;8.768;2023-03-03T13:05:53;95064.56;;;21.30;nan
10832;BME280;5469;48.574;8.768;2023-03-03T13:08:51;95050.78;;;23.15;nan
10832;BME280;5469;48.574;8.768;2023-03-03T13:11:40;95065.28;;;22.01;nan
10832;BME280;5469;48.574;8.768;2023-03-03T13:14:23;95064.09;;;21.28;nan
10832;BME280;5469;48.574;8.768;2023-03-03T13:17:13;95059.72;;;22.75;nan
10832;BME280;5469;48.574;8.768;2023-03-03T13:19:53;95059.41;;;22.11;nan
10832;BME280;5469;48.574;8.768;2023-03-03T13:22:34;95058.34;;;22.81;nan
10832;BME280;5469;48.574;8.768;2023-03-03T13:25:23;95064.13;;;22.39;nan
10832;BME280;5469;48.574;8.768;2023-03-03T13:28:10;95061.75;;;22.78;nan
10832;BME280;5469;48.574;8.768;2023-03-03T13:30:51;95056.88;;;22.55;nan
10832;BME280;5469;48.574;8.768;2023-03-03T13:33:33;95063.63;;;20.18;nan
10832;BME280;5469;48.574;8.768;2023-03-03T13:36:10;95053.81;;;21.92;nan
10832;BME280;5469;48.574;8.768;2023-03-03T13:38:48;95056.53;;;21.67;nan
10832;BME280;5469;48.574;8.768;2023-03-03T13:41:30;95064.63;;;21.79;nan
10832;BME280;5469;48.574;8.768;2023-03-03T13:44:14;95055.84;;;21.46;nan
10832;BME280;5469;48.574;8.768;2023-03-03T13:47:00;95056.38;;;20.60;nan
10832;BME280;5469;48.574;8.768;2023-03-03T13:49:44;95050.84;;;22.90;nan
10832;BME280;5469;48.574;8.768;2023-03-03T13:52:22;95052.44;;;22.10;nan
10832;BME280;5469;48.574;8.768;2023-03-03T13:55:05;95060.09;;;22.61;nan
10832;BME280;5469;48.574;8.768;2023-03-03T13:57:46;95055.31;;;21.19;nan
10832;BME280;5469;48.574;8.768;2023-03-03T14:00:35;95058.31;;;21.05;nan
10832;BME280;5469;48.574;8.768;2023-03-03T14:03:26;95056.41;;;21.51;nan
10832;BME280;5469;48.574;8.768;2023-03-03T14:06:07;95048.19;;;21.48;nan
10832;BME280;5469;48.574;8.768;2023-03-03T14:08:54;95052.47;;;21.98;nan
10832;BME280;5469;48.574;8.768;2023-03-03T14:11:34;95052.66;;;22.17;nan
10832;BME280;5469;48.574;8.768;2023-03-03T14:14:19;95052.06;;;22.77;nan
10832;BME280;5469;48.574;8.768;2023-03-03T14:17:03;95048.19;;;21.97;nan
10832;BME280;5469;48.574;8.768;2023-03-03T14:19:45;95051.91;;;20.98;nan
10832;BME280;5469;48.574;8.768;2023-03-03T14:22:24;95051.91;;;22.57;nan
10832;BME280;5469;48.574;8.768;2023-03-03T14:25:03;95054.81;;;22.12;nan
10832;BME280;5469;48.574;8.768;2023-03-03T14:27:51;95054.66;;;20.56;nan
10832;BME280;5469;48.574;8.768;2023-03-03T14:30:32;95040.06;;;22.34;nan
10832;BME280;5469;48.574;8.768;2023-03-03T14:33:19;95049.38;;;22.64;nan
10832;BME280;5469;48.574;8.768;2023-03-03T14:36:03;95050.00;;;22.05;nan
10832;BME280;5469;48.574;8.768;2023-03-03T14:38:40;95046.81;;;20.84;nan
10832;BME280;5469;48.574;8.768;2023-03-03T14:41:17;95051.53;;;22.31;nan
10832;BME280;5469;48.574;8.768;2023-03-03T14:43:58;95045.16;;;21.04;nan
10832;BME280;5469;48.574;8.768;2023-03-03T14:46:37;95041.97;;;21.23;nan
10832;BME280;5469;48.574;8.768;2023-03-03T14:49:29;95037.34;;;21.23;nan
10832;BME280;5469;48.574;8.768;2023-03-03T14:52:17;95045.63;;;21.06;nan
10832;BME280;5469;48.574;8.768;2023-03-03T14:54:55;95040.78;;;21.57;nan
10832;BME280;5469;48.574;8.768;2023-03-03T14:57:40;95048.94;;;20.36;nan
10832;BME280;5469;48.574;8.768;2023-03-03T15:00:32;95055.47;;;19.46;nan
10832;BME280;5469;48.574;8.768;2023-03-03T15:03:20;95048.41;;;20.64;nan
10832;BME280;5469;48.574;8.768;2023-03-03T15:05:57;95049.75;;;19.86;nan
10832;BME280;5469;48.574;8.768;2023-03-03T15:08:34;95050.13;;;18.82;nan